sensor_id;sensor_type;location;lat;lon;timestamp;P1;durP1;ratioP1;P2;durP2;ratioP2
11046;SDS011;5576;50.008;10.596;2023-04-06T00:01:06;3.90;;;3.00;;
11046;SDS011;5576;50.008;10.596;2023-04-06T00:03:33;4.43;;;3.47;;
11046;SDS011;5576;50.008;10.596;2023-04-06T00:05:59;5.30;;;3.40;;
11046;SDS011;5576;50.008;10.596;2023-04-06T00:08:25;3.72;;;3.13;;
11046;SDS011;5576;50.008;10.596;2023-04-06T00:10:52;3.83;;;3.40;;
11046;SDS011;5576;50.008;10.596;2023-04-06T00:13:17;4.80;;;3.90;;
11046;SDS011;5576;50.008;10.596;2023-04-06T00:15:43;5.13;;;3.80;;
11046;SDS011;5576;50.008;10.596;2023-04-06T00:18:09;4.00;;;3.47;;
11046;SDS011;5576;50.008;10.596;2023-04-06T00:20:35;3.75;;;3.20;;
11046;SDS011;5576;50.008;10.596;2023-04-06T00:23:01;3.80;;;3.20;;
11046;SDS011;5576;50.008;10.596;2023-04-06T00:25:27;4.28;;;3.20;;
11046;SDS011;5576;50.008;10.596;2023-04-06T00:27:53;4.28;;;3.20;;
11046;SDS011;5576;50.008;10.596;2023-04-06T00:30:18;4.10;;;3.27;;
11046;SDS011;5576;50.008;10.596;2023-04-06T00:32:44;4.70;;;3.60;;
11046;SDS011;5576;50.008;10.596;2023-04-06T00:35:10;4.22;;;3.33;;
11046;SDS011;5576;50.008;10.596;2023-04-06T00:37:36;4.37;;;3.50;;
11046;SDS011;5576;50.008;10.596;2023-04-06T00:40:02;4.20;;;3.30;;
11046;SDS011;5576;50.008;10.596;2023-04-06T00:42:28;3.97;;;3.05;;
11046;SDS011;5576;50.008;10.596;2023-04-06T00:44:54;4.38;;;3.30;;
11046;SDS011;5576;50.008;10.596;2023-04-06T00:47:22;4.60;;;3.42;;
11046;SDS011;5576;50.008;10.596;2023-04-06T00:49:50;5.25;;;3.45;;
11046;SDS011;5576;50.008;10.596;2023-04-06T00:52:16;4.10;;;3.47;;
11046;SDS011;5576;50.008;10.596;2023-04-06T00:54:45;4.65;;;3.20;;
11046;SDS011;5576;50.008;10.596;2023-04-06T00:57:12;4.47;;;3.25;;
11046;SDS011;5576;50.008;10.596;2023-04-06T00:59:38;3.95;;;3.42;;
11046;SDS011;5576;50.008;10.596;2023-04-06T01:02:07;6.07;;;3.57;;
11046;SDS011;5576;50.008;10.596;2023-04-06T01:04:40;3.77;;;3.30;;
11046;SDS011;5576;50.008;10.596;2023-04-06T01:07:11;3.40;;;3.10;;
11046;SDS011;5576;50.008;10.596;2023-04-06T01:09:45;5.45;;;4.00;;
11046;SDS011;5576;50.008;10.596;2023-04-06T01:12:18;4.83;;;3.70;;
11046;SDS011;5576;50.008;10.596;2023-04-06T01:14:44;5.10;;;3.87;;
11046;SDS011;5576;50.008;10.596;2023-04-06T01:17:10;5.72;;;3.70;;
11046;SDS011;5576;50.008;10.596;2023-04-06T01:19:36;5.50;;;3.67;;
11046;SDS011;5576;50.008;10.596;2023-04-06T01:22:02;4.93;;;3.60;;
11046;SDS011;5576;50.008;10.596;2023-04-06T01:24:29;4.47;;;3.87;;
11046;SDS011;5576;50.008;10.596;2023-04-06T01:27:14;6.13;;;4.03;;
11046;SDS011;5576;50.008;10.596;2023-04-06T01:30:00;4.55;;;3.65;;
11046;SDS011;5576;50.008;10.596;2023-04-06T01:32:45;4.72;;;4.05;;
11046;SDS011;5576;50.008;10.596;2023-04-06T01:35:14;4.28;;;3.80;;
11046;SDS011;5576;50.008;10.596;2023-04-06T01:37:49;4.78;;;4.05;;
11046;SDS011;5576;50.008;10.596;2023-04-06T01:40:23;4.55;;;4.13;;
11046;SDS011;5576;50.008;10.596;2023-04-06T01:42:50;4.60;;;3.90;;
11046;SDS011;5576;50.008;10.596;2023-04-06T01:45:26;4.70;;;4.05;;
11046;SDS011;5576;50.008;10.596;2023-04-06T01:47:56;4.97;;;4.38;;
11046;SDS011;5576;50.008;10.596;2023-04-06T01:50:24;5.78;;;4.25;;
11046;SDS011;5576;50.008;10.596;2023-04-06T01:52:50;5.15;;;4.65;;
11046;SDS011;5576;50.008;10.596;2023-04-06T01:55:16;5.00;;;4.30;;
11046;SDS011;5576;50.008;10.596;2023-04-06T01:58:01;4.80;;;4.13;;
11046;SDS011;5576;50.008;10.596;2023-04-06T02:00:33;5.13;;;4.47;;
11046;SDS011;5576;50.008;10.596;2023-04-06T02:03:00;5.47;;;4.68;;
11046;SDS011;5576;50.008;10.596;2023-04-06T02:05:29;5.57;;;5.03;;
11046;SDS011;5576;50.008;10.596;2023-04-06T02:07:56;5.65;;;4.70;;
11046;SDS011;5576;50.008;10.596;2023-04-06T02:10:30;5.55;;;4.95;;
11046;SDS011;5576;50.008;10.596;2023-04-06T02:13:00;7.28;;;5.13;;
11046;SDS011;5576;50.008;10.596;2023-04-06T02:15:27;6.60;;;5.18;;
11046;SDS011;5576;50.008;10.596;2023-04-06T02:17:52;6.65;;;5.20;;
11046;SDS011;5576;50.008;10.596;2023-04-06T02:20:18;5.05;;;4.55;;
11046;SDS011;5576;50.008;10.596;2023-04-06T02:22:44;5.40;;;4.90;;
11046;SDS011;5576;50.008;10.596;2023-04-06T02:25:10;5.97;;;5.25;;
11046;SDS011;5576;50.008;10.596;2023-04-06T02:27:37;5.60;;;4.70;;
11046;SDS011;5576;50.008;10.596;2023-04-06T02:30:04;5.40;;;4.88;;
11046;SDS011;5576;50.008;10.596;2023-04-06T02:32:30;6.13;;;5.25;;
11046;SDS011;5576;50.008;10.596;2023-04-06T02:34:56;5.47;;;4.80;;
11046;SDS011;5576;50.008;10.596;2023-04-06T02:37:22;6.32;;;5.10;;
11046;SDS011;5576;50.008;10.596;2023-04-06T02:39:49;5.57;;;4.80;;
11046;SDS011;5576;50.008;10.596;2023-04-06T02:42:15;7.17;;;5.30;;
11046;SDS011;5576;50.008;10.596;2023-04-06T02:44:42;6.30;;;4.93;;
11046;SDS011;5576;50.008;10.596;2023-04-06T02:47:09;5.88;;;4.53;;
11046;SDS011;5576;50.008;10.596;2023-04-06T02:49:37;5.25;;;4.75;;
11046;SDS011;5576;50.008;10.596;2023-04-06T02:52:03;6.85;;;4.90;;
11046;SDS011;5576;50.008;10.596;2023-04-06T02:54:32;5.80;;;4.65;;
11046;SDS011;5576;50.008;10.596;2023-04-06T02:56:59;5.30;;;4.80;;
11046;SDS011;5576;50.008;10.596;2023-04-06T02:59:36;5.50;;;4.60;;
11046;SDS011;5576;50.008;10.596;2023-04-06T03:02:12;5.85;;;5.10;;
11046;SDS011;5576;50.008;10.596;2023-04-06T03:04:38;5.75;;;5.10;;
11046;SDS011;5576;50.008;10.596;2023-04-06T03:07:08;5.65;;;5.03;;
11046;SDS011;5576;50.008;10.596;2023-04-06T03:09:37;6.45;;;5.38;;
11046;SDS011;5576;50.008;10.596;2023-04-06T03:12:03;7.78;;;6.68;;
11046;SDS011;5576;50.008;10.596;2023-04-06T03:14:35;7.13;;;5.80;;
11046;SDS011;5576;50.008;10.596;2023-04-06T03:17:02;6.30;;;5.40;;
11046;SDS011;5576;50.008;10.596;2023-04-06T03:19:28;7.65;;;5.85;;
11046;SDS011;5576;50.008;10.596;2023-04-06T03:21:57;7.50;;;6.43;;
11046;SDS011;5576;50.008;10.596;2023-04-06T03:24:24;7.75;;;6.13;;
11046;SDS011;5576;50.008;10.596;2023-04-06T03:26:50;7.32;;;5.90;;
11046;SDS011;5576;50.008;10.596;2023-04-06T03:29:15;7.20;;;5.80;;
11046;SDS011;5576;50.008;10.596;2023-04-06T03:31:41;6.75;;;6.03;;
11046;SDS011;5576;50.008;10.596;2023-04-06T03:34:23;7.05;;;6.15;;
11046;SDS011;5576;50.008;10.596;2023-04-06T03:36:49;6.60;;;5.90;;
11046;SDS011;5576;50.008;10.596;2023-04-06T03:39:15;6.65;;;5.85;;
11046;SDS011;5576;50.008;10.596;2023-04-06T03:41:42;7.03;;;5.87;;
11046;SDS011;5576;50.008;10.596;2023-04-06T03:44:29;7.43;;;5.85;;
11046;SDS011;5576;50.008;10.596;2023-04-06T03:46:55;7.68;;;5.90;;
11046;SDS011;5576;50.008;10.596;2023-04-06T03:49:22;7.10;;;5.82;;
11046;SDS011;5576;50.008;10.596;2023-04-06T03:51:50;7.10;;;6.40;;
11046;SDS011;5576;50.008;10.596;2023-04-06T03:54:15;7.63;;;6.37;;
11046;SDS011;5576;50.008;10.596;2023-04-06T03:56:41;7.22;;;5.85;;
11046;SDS011;5576;50.008;10.596;2023-04-06T03:59:07;7.82;;;5.90;;
11046;SDS011;5576;50.008;10.596;2023-04-06T04:01:33;8.23;;;5.80;;
11046;SDS011;5576;50.008;10.596;2023-04-06T04:04:01;7.77;;;6.07;;
11046;SDS011;5576;50.008;10.596;2023-04-06T04:06:27;7.45;;;5.80;;
11046;SDS011;5576;50.008;10.596;2023-04-06T04:08:53;6.60;;;5.87;;
11046;SDS011;5576;50.008;10.596;2023-04-06T04:11:18;8.03;;;5.93;;
11046;SDS011;5576;50.008;10.596;2023-04-06T04:13:49;6.85;;;6.00;;
11046;SDS011;5576;50.008;10.596;2023-04-06T04:16:15;6.88;;;6.15;;
11046;SDS011;5576;50.008;10.596;2023-04-06T04:18:41;8.52;;;6.53;;
11046;SDS011;5576;50.008;10.596;2023-04-06T04:21:08;7.82;;;6.50;;
11046;SDS011;5576;50.008;10.596;2023-04-06T04:23:34;7.50;;;6.70;;
11046;SDS011;5576;50.008;10.596;2023-04-06T04:26:00;8.33;;;6.70;;
11046;SDS011;5576;50.008;10.596;2023-04-06T04:28:26;8.30;;;6.25;;
11046;SDS011;5576;50.008;10.596;2023-04-06T04:30:54;7.30;;;6.13;;
11046;SDS011;5576;50.008;10.596;2023-04-06T04:33:21;8.05;;;6.90;;
11046;SDS011;5576;50.008;10.596;2023-04-06T04:35:49;7.40;;;6.38;;
11046;SDS011;5576;50.008;10.596;2023-04-06T04:38:18;9.60;;;7.00;;
11046;SDS011;5576;50.008;10.596;2023-04-06T04:40:49;9.30;;;7.25;;
11046;SDS011;5576;50.008;10.596;2023-04-06T04:43:15;9.32;;;7.50;;
11046;SDS011;5576;50.008;10.596;2023-04-06T04:45:41;9.13;;;7.03;;
11046;SDS011;5576;50.008;10.596;2023-04-06T04:48:16;7.78;;;6.60;;
11046;SDS011;5576;50.008;10.596;2023-04-06T04:50:49;8.75;;;6.60;;
11046;SDS011;5576;50.008;10.596;2023-04-06T04:53:16;8.10;;;6.82;;
11046;SDS011;5576;50.008;10.596;2023-04-06T04:55:43;8.40;;;6.65;;
11046;SDS011;5576;50.008;10.596;2023-04-06T04:58:10;8.35;;;6.25;;
11046;SDS011;5576;50.008;10.596;2023-04-06T05:00:47;9.90;;;7.57;;
11046;SDS011;5576;50.008;10.596;2023-04-06T05:03:18;9.82;;;7.75;;
11046;SDS011;5576;50.008;10.596;2023-04-06T05:05:54;11.80;;;9.50;;
11046;SDS011;5576;50.008;10.596;2023-04-06T05:08:22;11.95;;;9.27;;
11046;SDS011;5576;50.008;10.596;2023-04-06T05:10:48;11.47;;;9.23;;
11046;SDS011;5576;50.008;10.596;2023-04-06T05:13:15;13.70;;;11.13;;
11046;SDS011;5576;50.008;10.596;2023-04-06T05:15:43;14.95;;;12.32;;
11046;SDS011;5576;50.008;10.596;2023-04-06T05:18:19;14.77;;;11.75;;
11046;SDS011;5576;50.008;10.596;2023-04-06T05:20:45;14.70;;;12.35;;
11046;SDS011;5576;50.008;10.596;2023-04-06T05:23:12;15.18;;;12.10;;
11046;SDS011;5576;50.008;10.596;2023-04-06T05:25:38;12.98;;;11.27;;
11046;SDS011;5576;50.008;10.596;2023-04-06T05:28:13;10.70;;;9.13;;
11046;SDS011;5576;50.008;10.596;2023-04-06T05:30:41;11.05;;;9.35;;
11046;SDS011;5576;50.008;10.596;2023-04-06T05:33:09;10.43;;;8.40;;
11046;SDS011;5576;50.008;10.596;2023-04-06T05:35:55;8.90;;;7.90;;
11046;SDS011;5576;50.008;10.596;2023-04-06T05:38:21;8.77;;;7.28;;
11046;SDS011;5576;50.008;10.596;2023-04-06T05:40:48;8.80;;;7.05;;
11046;SDS011;5576;50.008;10.596;2023-04-06T05:43:18;9.07;;;7.25;;
11046;SDS011;5576;50.008;10.596;2023-04-06T05:45:50;11.38;;;8.10;;
11046;SDS011;5576;50.008;10.596;2023-04-06T05:48:16;9.30;;;7.80;;
11046;SDS011;5576;50.008;10.596;2023-04-06T05:50:41;7.43;;;6.32;;
11046;SDS011;5576;50.008;10.596;2023-04-06T05:53:09;7.80;;;6.23;;
11046;SDS011;5576;50.008;10.596;2023-04-06T05:55:40;8.38;;;6.95;;
11046;SDS011;5576;50.008;10.596;2023-04-06T05:58:14;6.80;;;5.82;;
11046;SDS011;5576;50.008;10.596;2023-04-06T06:00:45;6.82;;;5.82;;
11046;SDS011;5576;50.008;10.596;2023-04-06T06:03:12;6.50;;;5.55;;
11046;SDS011;5576;50.008;10.596;2023-04-06T06:05:45;7.15;;;5.60;;
11046;SDS011;5576;50.008;10.596;2023-04-06T06:08:17;6.50;;;5.83;;
11046;SDS011;5576;50.008;10.596;2023-04-06T06:10:45;6.70;;;5.85;;
11046;SDS011;5576;50.008;10.596;2023-04-06T06:13:12;7.20;;;5.85;;
11046;SDS011;5576;50.008;10.596;2023-04-06T06:15:38;7.00;;;5.60;;
11046;SDS011;5576;50.008;10.596;2023-04-06T06:18:04;6.32;;;5.57;;
11046;SDS011;5576;50.008;10.596;2023-04-06T06:20:30;6.53;;;5.55;;
11046;SDS011;5576;50.008;10.596;2023-04-06T06:22:59;6.07;;;4.93;;
11046;SDS011;5576;50.008;10.596;2023-04-06T06:25:25;5.85;;;5.10;;
11046;SDS011;5576;50.008;10.596;2023-04-06T06:27:51;7.47;;;5.47;;
11046;SDS011;5576;50.008;10.596;2023-04-06T06:30:18;6.47;;;5.10;;
11046;SDS011;5576;50.008;10.596;2023-04-06T06:32:44;6.13;;;5.53;;
11046;SDS011;5576;50.008;10.596;2023-04-06T06:35:10;7.77;;;5.97;;
11046;SDS011;5576;50.008;10.596;2023-04-06T06:37:36;7.68;;;5.75;;
11046;SDS011;5576;50.008;10.596;2023-04-06T06:40:04;7.65;;;5.70;;
11046;SDS011;5576;50.008;10.596;2023-04-06T06:42:32;6.15;;;5.30;;
11046;SDS011;5576;50.008;10.596;2023-04-06T06:45:06;7.60;;;5.53;;
11046;SDS011;5576;50.008;10.596;2023-04-06T06:47:33;6.13;;;5.22;;
11046;SDS011;5576;50.008;10.596;2023-04-06T06:49:59;6.73;;;5.47;;
11046;SDS011;5576;50.008;10.596;2023-04-06T06:52:25;8.57;;;6.27;;
11046;SDS011;5576;50.008;10.596;2023-04-06T06:54:51;7.07;;;5.95;;
11046;SDS011;5576;50.008;10.596;2023-04-06T06:57:18;7.43;;;5.80;;
11046;SDS011;5576;50.008;10.596;2023-04-06T06:59:45;7.72;;;5.95;;
11046;SDS011;5576;50.008;10.596;2023-04-06T07:02:11;6.10;;;5.50;;
11046;SDS011;5576;50.008;10.596;2023-04-06T07:04:37;7.30;;;5.53;;
11046;SDS011;5576;50.008;10.596;2023-04-06T07:07:03;6.25;;;5.22;;
11046;SDS011;5576;50.008;10.596;2023-04-06T07:09:29;7.33;;;5.40;;
11046;SDS011;5576;50.008;10.596;2023-04-06T07:11:54;6.03;;;5.18;;
11046;SDS011;5576;50.008;10.596;2023-04-06T07:14:21;6.88;;;5.45;;
11046;SDS011;5576;50.008;10.596;2023-04-06T07:16:47;6.67;;;5.47;;
11046;SDS011;5576;50.008;10.596;2023-04-06T07:19:15;6.68;;;5.93;;
11046;SDS011;5576;50.008;10.596;2023-04-06T07:21:41;6.47;;;5.38;;
11046;SDS011;5576;50.008;10.596;2023-04-06T07:24:06;6.60;;;5.70;;
11046;SDS011;5576;50.008;10.596;2023-04-06T07:26:32;7.15;;;5.97;;
11046;SDS011;5576;50.008;10.596;2023-04-06T07:28:58;7.10;;;5.40;;
11046;SDS011;5576;50.008;10.596;2023-04-06T07:31:24;6.20;;;5.60;;
11046;SDS011;5576;50.008;10.596;2023-04-06T07:33:51;6.97;;;5.28;;
11046;SDS011;5576;50.008;10.596;2023-04-06T07:36:17;7.43;;;5.68;;
11046;SDS011;5576;50.008;10.596;2023-04-06T07:38:43;7.03;;;5.50;;
11046;SDS011;5576;50.008;10.596;2023-04-06T07:41:11;7.20;;;5.68;;
11046;SDS011;5576;50.008;10.596;2023-04-06T07:43:37;8.27;;;5.80;;
11046;SDS011;5576;50.008;10.596;2023-04-06T07:46:03;6.25;;;5.50;;
11046;SDS011;5576;50.008;10.596;2023-04-06T07:48:29;6.72;;;5.38;;
11046;SDS011;5576;50.008;10.596;2023-04-06T07:51:03;9.35;;;7.45;;
11046;SDS011;5576;50.008;10.596;2023-04-06T07:53:32;6.95;;;5.43;;
11046;SDS011;5576;50.008;10.596;2023-04-06T07:55:58;7.07;;;5.60;;
11046;SDS011;5576;50.008;10.596;2023-04-06T07:58:24;6.78;;;5.72;;
11046;SDS011;5576;50.008;10.596;2023-04-06T08:00:50;7.40;;;5.65;;
11046;SDS011;5576;50.008;10.596;2023-04-06T08:03:15;7.47;;;5.30;;
11046;SDS011;5576;50.008;10.596;2023-04-06T08:05:42;7.07;;;5.80;;
11046;SDS011;5576;50.008;10.596;2023-04-06T08:08:07;7.10;;;5.63;;
11046;SDS011;5576;50.008;10.596;2023-04-06T08:10:33;7.63;;;5.90;;
11046;SDS011;5576;50.008;10.596;2023-04-06T08:13:00;6.40;;;5.63;;
11046;SDS011;5576;50.008;10.596;2023-04-06T08:15:25;6.90;;;5.80;;
11046;SDS011;5576;50.008;10.596;2023-04-06T08:17:51;7.82;;;5.85;;
11046;SDS011;5576;50.008;10.596;2023-04-06T08:20:17;7.05;;;5.68;;
11046;SDS011;5576;50.008;10.596;2023-04-06T08:22:43;7.32;;;5.75;;
11046;SDS011;5576;50.008;10.596;2023-04-06T08:25:09;6.83;;;5.30;;
11046;SDS011;5576;50.008;10.596;2023-04-06T08:27:35;7.32;;;6.00;;
11046;SDS011;5576;50.008;10.596;2023-04-06T08:30:00;6.90;;;5.77;;
11046;SDS011;5576;50.008;10.596;2023-04-06T08:32:26;6.40;;;5.50;;
11046;SDS011;5576;50.008;10.596;2023-04-06T08:34:53;6.85;;;5.30;;
11046;SDS011;5576;50.008;10.596;2023-04-06T08:37:20;6.13;;;5.20;;
11046;SDS011;5576;50.008;10.596;2023-04-06T08:39:46;6.50;;;5.53;;
11046;SDS011;5576;50.008;10.596;2023-04-06T08:42:12;5.88;;;5.18;;
11046;SDS011;5576;50.008;10.596;2023-04-06T08:44:45;7.55;;;6.10;;
11046;SDS011;5576;50.008;10.596;2023-04-06T08:47:13;7.75;;;6.15;;
11046;SDS011;5576;50.008;10.596;2023-04-06T08:49:39;6.93;;;6.15;;
11046;SDS011;5576;50.008;10.596;2023-04-06T08:52:07;7.28;;;5.72;;
11046;SDS011;5576;50.008;10.596;2023-04-06T08:54:33;6.17;;;5.47;;
11046;SDS011;5576;50.008;10.596;2023-04-06T08:56:59;7.50;;;6.17;;
11046;SDS011;5576;50.008;10.596;2023-04-06T08:59:26;6.45;;;5.80;;
11046;SDS011;5576;50.008;10.596;2023-04-06T09:01:53;6.55;;;5.50;;
11046;SDS011;5576;50.008;10.596;2023-04-06T09:04:20;6.28;;;5.57;;
11046;SDS011;5576;50.008;10.596;2023-04-06T09:06:46;6.95;;;5.85;;
11046;SDS011;5576;50.008;10.596;2023-04-06T09:09:12;8.65;;;5.88;;
11046;SDS011;5576;50.008;10.596;2023-04-06T09:11:42;7.17;;;5.90;;
11046;SDS011;5576;50.008;10.596;2023-04-06T09:14:09;6.00;;;5.40;;
11046;SDS011;5576;50.008;10.596;2023-04-06T09:16:38;7.65;;;5.75;;
11046;SDS011;5576;50.008;10.596;2023-04-06T09:19:05;7.07;;;6.13;;
11046;SDS011;5576;50.008;10.596;2023-04-06T09:21:32;6.18;;;5.57;;
11046;SDS011;5576;50.008;10.596;2023-04-06T09:23:59;6.30;;;5.70;;
11046;SDS011;5576;50.008;10.596;2023-04-06T09:26:25;7.15;;;6.30;;
11046;SDS011;5576;50.008;10.596;2023-04-06T09:28:53;6.97;;;6.13;;
11046;SDS011;5576;50.008;10.596;2023-04-06T09:31:22;7.15;;;6.00;;
11046;SDS011;5576;50.008;10.596;2023-04-06T09:33:49;7.32;;;6.55;;
11046;SDS011;5576;50.008;10.596;2023-04-06T09:36:15;7.70;;;6.30;;
11046;SDS011;5576;50.008;10.596;2023-04-06T09:38:58;7.10;;;6.40;;
11046;SDS011;5576;50.008;10.596;2023-04-06T09:44:09;6.82;;;6.13;;
11046;SDS011;5576;50.008;10.596;2023-04-06T09:46:37;7.00;;;6.18;;
11046;SDS011;5576;50.008;10.596;2023-04-06T09:49:04;8.55;;;6.45;;
11046;SDS011;5576;50.008;10.596;2023-04-06T09:51:31;7.05;;;6.15;;
11046;SDS011;5576;50.008;10.596;2023-04-06T09:54:06;7.60;;;6.80;;
11046;SDS011;5576;50.008;10.596;2023-04-06T09:56:37;7.50;;;6.40;;
11046;SDS011;5576;50.008;10.596;2023-04-06T09:59:14;7.20;;;6.20;;
11046;SDS011;5576;50.008;10.596;2023-04-06T10:01:46;7.30;;;6.60;;
11046;SDS011;5576;50.008;10.596;2023-04-06T10:06:49;7.30;;;6.60;;
11046;SDS011;5576;50.008;10.596;2023-04-06T10:09:17;8.23;;;6.37;;
11046;SDS011;5576;50.008;10.596;2023-04-06T10:11:45;7.50;;;6.65;;
11046;SDS011;5576;50.008;10.596;2023-04-06T10:14:14;6.55;;;5.95;;
11046;SDS011;5576;50.008;10.596;2023-04-06T10:16:41;7.47;;;6.60;;
11046;SDS011;5576;50.008;10.596;2023-04-06T10:19:10;7.05;;;6.35;;
11046;SDS011;5576;50.008;10.596;2023-04-06T10:21:41;7.22;;;6.53;;
11046;SDS011;5576;50.008;10.596;2023-04-06T10:24:13;7.43;;;6.55;;
11046;SDS011;5576;50.008;10.596;2023-04-06T10:26:39;6.95;;;6.30;;
11046;SDS011;5576;50.008;10.596;2023-04-06T10:29:05;7.05;;;6.35;;
11046;SDS011;5576;50.008;10.596;2023-04-06T10:31:31;7.43;;;6.70;;
11046;SDS011;5576;50.008;10.596;2023-04-06T10:33:58;7.40;;;6.70;;
11046;SDS011;5576;50.008;10.596;2023-04-06T10:36:27;7.93;;;6.60;;
11046;SDS011;5576;50.008;10.596;2023-04-06T10:38:57;8.77;;;7.53;;
11046;SDS011;5576;50.008;10.596;2023-04-06T10:41:41;8.73;;;7.20;;
11046;SDS011;5576;50.008;10.596;2023-04-06T10:44:16;7.40;;;6.70;;
11046;SDS011;5576;50.008;10.596;2023-04-06T10:46:57;7.10;;;6.40;;
11046;SDS011;5576;50.008;10.596;2023-04-06T10:49:26;7.53;;;6.55;;
11046;SDS011;5576;50.008;10.596;2023-04-06T10:51:53;8.05;;;7.10;;
11046;SDS011;5576;50.008;10.596;2023-04-06T10:54:20;6.75;;;6.13;;
11046;SDS011;5576;50.008;10.596;2023-04-06T10:56:47;7.50;;;6.70;;
11046;SDS011;5576;50.008;10.596;2023-04-06T10:59:14;7.55;;;6.45;;
11046;SDS011;5576;50.008;10.596;2023-04-06T11:01:45;8.88;;;7.25;;
11046;SDS011;5576;50.008;10.596;2023-04-06T11:04:15;7.80;;;7.00;;
11046;SDS011;5576;50.008;10.596;2023-04-06T11:06:45;8.87;;;7.10;;
11046;SDS011;5576;50.008;10.596;2023-04-06T11:09:22;8.18;;;7.10;;
11046;SDS011;5576;50.008;10.596;2023-04-06T11:11:49;8.38;;;7.40;;
11046;SDS011;5576;50.008;10.596;2023-04-06T11:14:14;8.10;;;7.25;;
11046;SDS011;5576;50.008;10.596;2023-04-06T11:16:40;7.90;;;7.10;;
11046;SDS011;5576;50.008;10.596;2023-04-06T11:19:06;8.60;;;7.30;;
11046;SDS011;5576;50.008;10.596;2023-04-06T11:26:41;7.75;;;6.95;;
11046;SDS011;5576;50.008;10.596;2023-04-06T11:29:09;7.65;;;6.88;;
11046;SDS011;5576;50.008;10.596;2023-04-06T11:31:38;7.93;;;7.00;;
11046;SDS011;5576;50.008;10.596;2023-04-06T11:34:09;8.43;;;7.45;;
11046;SDS011;5576;50.008;10.596;2023-04-06T11:36:35;8.77;;;7.20;;
11046;SDS011;5576;50.008;10.596;2023-04-06T11:39:04;8.82;;;7.85;;
11046;SDS011;5576;50.008;10.596;2023-04-06T11:41:32;8.10;;;7.30;;
11046;SDS011;5576;50.008;10.596;2023-04-06T11:43:58;8.35;;;7.40;;
11046;SDS011;5576;50.008;10.596;2023-04-06T11:46:27;8.45;;;7.30;;
11046;SDS011;5576;50.008;10.596;2023-04-06T11:48:52;8.25;;;7.38;;
11046;SDS011;5576;50.008;10.596;2023-04-06T11:51:24;8.13;;;7.32;;
11046;SDS011;5576;50.008;10.596;2023-04-06T11:53:51;7.47;;;6.78;;
11046;SDS011;5576;50.008;10.596;2023-04-06T11:56:25;7.60;;;6.87;;
11046;SDS011;5576;50.008;10.596;2023-04-06T11:58:54;7.97;;;7.10;;
11046;SDS011;5576;50.008;10.596;2023-04-06T12:01:22;8.68;;;7.50;;
11046;SDS011;5576;50.008;10.596;2023-04-06T12:03:49;8.77;;;7.53;;
11046;SDS011;5576;50.008;10.596;2023-04-06T12:06:16;8.27;;;7.40;;
11046;SDS011;5576;50.008;10.596;2023-04-06T12:08:42;7.88;;;7.07;;
11046;SDS011;5576;50.008;10.596;2023-04-06T12:11:08;8.82;;;7.93;;
11046;SDS011;5576;50.008;10.596;2023-04-06T12:13:34;7.97;;;7.18;;
11046;SDS011;5576;50.008;10.596;2023-04-06T12:15:59;8.23;;;7.43;;
11046;SDS011;5576;50.008;10.596;2023-04-06T12:18:25;7.90;;;7.10;;
11046;SDS011;5576;50.008;10.596;2023-04-06T12:20:51;7.97;;;7.18;;
11046;SDS011;5576;50.008;10.596;2023-04-06T12:23:18;8.13;;;7.30;;
11046;SDS011;5576;50.008;10.596;2023-04-06T12:25:44;8.75;;;7.82;;
11046;SDS011;5576;50.008;10.596;2023-04-06T12:28:10;8.33;;;7.37;;
11046;SDS011;5576;50.008;10.596;2023-04-06T12:30:36;8.88;;;7.97;;
11046;SDS011;5576;50.008;10.596;2023-04-06T12:33:02;8.20;;;7.30;;
11046;SDS011;5576;50.008;10.596;2023-04-06T12:35:27;8.63;;;7.47;;
11046;SDS011;5576;50.008;10.596;2023-04-06T12:37:53;8.00;;;7.20;;
11046;SDS011;5576;50.008;10.596;2023-04-06T12:40:19;8.10;;;6.70;;
11046;SDS011;5576;50.008;10.596;2023-04-06T12:42:46;7.88;;;7.07;;
11046;SDS011;5576;50.008;10.596;2023-04-06T12:45:11;8.93;;;7.50;;
11046;SDS011;5576;50.008;10.596;2023-04-06T12:47:37;8.68;;;7.80;;
11046;SDS011;5576;50.008;10.596;2023-04-06T12:50:04;8.80;;;7.70;;
11046;SDS011;5576;50.008;10.596;2023-04-06T12:52:31;9.65;;;8.73;;
11046;SDS011;5576;50.008;10.596;2023-04-06T12:55:00;9.57;;;8.05;;
11046;SDS011;5576;50.008;10.596;2023-04-06T12:57:26;8.13;;;7.32;;
11046;SDS011;5576;50.008;10.596;2023-04-06T12:59:52;9.90;;;8.30;;
11046;SDS011;5576;50.008;10.596;2023-04-06T13:02:18;9.27;;;7.95;;
11046;SDS011;5576;50.008;10.596;2023-04-06T13:04:45;8.48;;;7.68;;
11046;SDS011;5576;50.008;10.596;2023-04-06T13:07:11;8.50;;;7.65;;
11046;SDS011;5576;50.008;10.596;2023-04-06T13:09:37;9.50;;;7.80;;
11046;SDS011;5576;50.008;10.596;2023-04-06T13:12:02;8.63;;;7.63;;
11046;SDS011;5576;50.008;10.596;2023-04-06T13:14:28;9.17;;;8.20;;
11046;SDS011;5576;50.008;10.596;2023-04-06T13:16:54;8.18;;;7.25;;
11046;SDS011;5576;50.008;10.596;2023-04-06T13:19:20;8.75;;;6.80;;
11046;SDS011;5576;50.008;10.596;2023-04-06T13:21:46;8.52;;;6.97;;
11046;SDS011;5576;50.008;10.596;2023-04-06T13:24:12;8.95;;;7.18;;
11046;SDS011;5576;50.008;10.596;2023-04-06T13:26:38;8.48;;;6.97;;
11046;SDS011;5576;50.008;10.596;2023-04-06T13:29:03;7.80;;;7.00;;
11046;SDS011;5576;50.008;10.596;2023-04-06T13:31:29;7.70;;;6.90;;
11046;SDS011;5576;50.008;10.596;2023-04-06T13:33:55;8.73;;;7.82;;
11046;SDS011;5576;50.008;10.596;2023-04-06T13:36:21;7.85;;;7.05;;
11046;SDS011;5576;50.008;10.596;2023-04-06T13:38:47;8.55;;;7.20;;
11046;SDS011;5576;50.008;10.596;2023-04-06T13:41:21;8.43;;;7.63;;
11046;SDS011;5576;50.008;10.596;2023-04-06T13:43:47;8.57;;;7.67;;
11046;SDS011;5576;50.008;10.596;2023-04-06T13:46:13;8.07;;;7.15;;
11046;SDS011;5576;50.008;10.596;2023-04-06T13:48:39;7.28;;;6.60;;
11046;SDS011;5576;50.008;10.596;2023-04-06T13:51:12;8.18;;;7.07;;
11046;SDS011;5576;50.008;10.596;2023-04-06T13:53:39;8.10;;;7.30;;
11046;SDS011;5576;50.008;10.596;2023-04-06T13:56:06;8.70;;;7.80;;
11046;SDS011;5576;50.008;10.596;2023-04-06T13:58:32;7.70;;;7.00;;
11046;SDS011;5576;50.008;10.596;2023-04-06T14:01:06;8.40;;;7.50;;
11046;SDS011;5576;50.008;10.596;2023-04-06T14:03:32;7.60;;;6.80;;
11046;SDS011;5576;50.008;10.596;2023-04-06T14:05:58;8.00;;;7.20;;
11046;SDS011;5576;50.008;10.596;2023-04-06T14:08:24;8.23;;;7.35;;
11046;SDS011;5576;50.008;10.596;2023-04-06T14:10:50;8.48;;;7.40;;
11046;SDS011;5576;50.008;10.596;2023-04-06T14:13:16;8.40;;;7.60;;
11046;SDS011;5576;50.008;10.596;2023-04-06T14:15:42;8.38;;;7.03;;
11046;SDS011;5576;50.008;10.596;2023-04-06T14:18:08;8.55;;;7.60;;
11046;SDS011;5576;50.008;10.596;2023-04-06T14:20:34;8.10;;;7.30;;
11046;SDS011;5576;50.008;10.596;2023-04-06T14:23:00;8.88;;;7.35;;
11046;SDS011;5576;50.008;10.596;2023-04-06T14:25:26;8.83;;;7.17;;
11046;SDS011;5576;50.008;10.596;2023-04-06T14:27:53;7.72;;;6.70;;
11046;SDS011;5576;50.008;10.596;2023-04-06T14:30:18;8.37;;;7.17;;
11046;SDS011;5576;50.008;10.596;2023-04-06T14:32:44;7.53;;;6.70;;
11046;SDS011;5576;50.008;10.596;2023-04-06T14:35:10;7.07;;;6.40;;
11046;SDS011;5576;50.008;10.596;2023-04-06T14:37:36;7.15;;;6.45;;
11046;SDS011;5576;50.008;10.596;2023-04-06T14:40:02;6.73;;;6.03;;
11046;SDS011;5576;50.008;10.596;2023-04-06T14:42:28;6.60;;;5.85;;
11046;SDS011;5576;50.008;10.596;2023-04-06T14:44:54;6.70;;;6.00;;
11046;SDS011;5576;50.008;10.596;2023-04-06T14:47:20;6.53;;;5.82;;
11046;SDS011;5576;50.008;10.596;2023-04-06T14:49:47;6.40;;;5.78;;
11046;SDS011;5576;50.008;10.596;2023-04-06T14:52:15;7.10;;;6.40;;
11046;SDS011;5576;50.008;10.596;2023-04-06T14:54:41;7.22;;;6.32;;
11046;SDS011;5576;50.008;10.596;2023-04-06T14:57:07;6.53;;;5.82;;
11046;SDS011;5576;50.008;10.596;2023-04-06T14:59:32;7.85;;;6.50;;
11046;SDS011;5576;50.008;10.596;2023-04-06T15:01:58;7.18;;;6.47;;